• Join FlightAware (Why Join?)
  • Login
  • US Flag 
02:37PM EDT


 

Airport Tracker/Info


-or-


 

Live Flight TrackerFlight Track Log ✈ 9Y-SXM ✈ 30-Apr-2013 ✈ CYYZ - SYCJ / GEO

Flight Track Log - Related Links

Times and Time Zones

All times are in EDT time to prevent confusion due to time zone crossing. See the 9Y-SXM flight status page for this flight to view local times or setup timezone preferences in your user account.

Time Position Orientation Groundspeed Altitude Reporting Facility
EDT Latitude Longitude Course Direction KTS MPH feet Rate Location/Type
11:03PM 43.6700 -79.6710 317° Northwest 164 189 1,400  Level FlightAware
11:03PM 43.6600 -79.6940 239° Southwest 170 196 2,500 1,740 Climbing FlightAware
11:04PM 43.6470 -79.7260 241° Southwest 210 242 3,000 1,260 Climbing FlightAware
11:04PM 43.6330 -79.7570 238° Southwest 241 277 3,700 1,920 Climbing FlightAware
11:04PM 43.6200 -79.7700 216° Southwest 244 281 4,300 2,760 Climbing FlightAware
11:05PM 43.6030 -79.7730 187° South 248 285 5,100 2,700 Climbing FlightAware
11:05PM 43.5720 -79.7730 180° South 263 303 6,100 2,160 Climbing FlightAware
11:06PM 43.5340 -79.7720 179° South 285 328 7,100 2,220 Climbing FlightAware
11:06PM 43.5160 -79.7710 178° South 288 331 7,800 2,700 Climbing FlightAware
11:06PM 43.4800 -79.7700 179° South 296 341 8,900 2,220 Climbing FlightAware
11:07PM 43.4160 -79.7690 179° South 328 377 10,400 1,620 Climbing FlightAware
11:08PM 43.3500 -79.7680 179° South 372 428 11,200 1,740 Climbing FlightAware
11:08PM 43.2710 -79.7660 179° South 390 449 12,900 2,400 Climbing FlightAware
11:09PM 43.1990 -79.7640 179° South 394 453 14,600 2,580 Climbing FlightAware
11:10PM 43.1270 -79.7620 179° South 396 456 16,400 2,520 Climbing FlightAware
11:11PM 43.0420 -79.7620 180° South 399 459 18,200 2,160 Climbing FlightAware
11:11PM 42.9700 -79.7610 179° South 407 468 19,500 1,860 Climbing FlightAware
11:12PM 42.8830 -79.7570 178° South 417 480 20,900 1,680 Climbing FlightAware
11:13PM 42.8030 -79.7530 178° South 430 495 21,900 1,380 Climbing FlightAware
11:13PM 42.7300 -79.7470 177° South 441 507 22,800 1,500 Climbing FlightAware
11:14PM 42.6360 -79.7000 160° South 453 521 24,100 1,680 Climbing FlightAware
11:15PM 42.5600 -79.6540 156° South 454 522 25,200 1,500 Climbing FlightAware
11:15PM 42.4740 -79.6020 156° South 457 526 26,300 1,440 Climbing FlightAware
11:16PM 42.3950 -79.5530 155° Southeast 462 532 27,300 1,260 Climbing FlightAware
11:17PM 42.3160 -79.5050 156° South 469 540 28,000 900 Climbing FlightAware
11:18PM 42.2280 -79.4520 156° South 480 552 28,600 840 Climbing FlightAware
11:18PM 42.1440 -79.4010 156° South 487 560 29,200 1,020 Climbing FlightAware
11:19PM 42.0530 -79.3460 156° South 488 562 30,100 1,260 Climbing FlightAware
11:20PM 41.9690 -79.2960 156° South 486 559 31,000 1,260 Climbing FlightAware
11:20PM 41.8790 -79.2420 156° South 483 556 31,900 1,200 Climbing FlightAware
11:21PM 41.7960 -79.1920 156° South 482 555 32,700 1,080 Climbing FlightAware
11:22PM 41.7040 -79.1380 156° South 480 552 33,500 1,020 Climbing FlightAware
11:22PM 41.6240 -79.0910 156° South 477 549 34,200 1,020 Climbing FlightAware
11:23PM 41.5450 -79.0440 156° South 475 547 34,900 540 Climbing FlightAware
11:24PM 41.4550 -78.9910 156° South 475 547 35,000 60 Climbing FlightAware
11:25PM 41.3730 -78.9430 156° South 473 544 35,000  Level FlightAware
11:25PM 41.2840 -78.8900 156° South 473 544 35,000  Level FlightAware
11:26PM 41.2030 -78.8430 156° South 473 544 35,000  Level FlightAware
11:27PM 41.1250 -78.7980 157° South 471 542 35,000  Level FlightAware
11:27PM 41.0330 -78.7450 157° South 472 543 35,000  Level FlightAware
11:28PM 40.9540 -78.6990 156° South 472 543 35,000  Level FlightAware
11:29PM 40.8630 -78.6470 157° South 472 543 35,000  Level FlightAware
11:29PM 40.7830 -78.6000 156° South 473 544 35,000  Level FlightAware
11:30PM 40.7050 -78.5560 157° South 474 545 35,000  Level FlightAware
11:31PM 40.6120 -78.5020 156° South 475 547 35,000  Level FlightAware
11:32PM 40.5330 -78.4570 157° South 476 548 35,000  Level FlightAware
11:32PM 40.4540 -78.4120 157° South 478 550 35,000  Level FlightAware
11:33PM 40.3590 -78.3580 157° South 479 551 35,000  Level FlightAware
11:34PM 40.2790 -78.3130 157° South 480 552 35,000  Level FlightAware
11:34PM 40.1727 -78.2529 157° South 482 555 35,000  Level FlightAware ADS-B
11:35PM 40.1102 -78.2177 157° South 481 554 35,000  Level FlightAware ADS-B
11:35PM 40.0454 -78.1815 157° South 480 552 35,000  Level FlightAware ADS-B
11:36PM 39.9830 -78.1465 157° South 479 551 35,000  Level FlightAware ADS-B
11:36PM 39.9310 -78.1170 156° South 478 550 35,000  Level FlightAware
11:37PM 39.8948 -78.0970 157° South 479 551 35,000  Level FlightAware ADS-B
11:37PM 39.8046 -78.0467 157° South 478 550 35,000  Level FlightAware ADS-B
11:38PM 39.7410 -78.0114 157° South 477 549 35,000  Level FlightAware ADS-B
11:38PM 39.6796 -77.9772 157° South 477 549 35,000  Level FlightAware ADS-B
11:39PM 39.6187 -77.9435 157° South 476 548 35,000  Level FlightAware ADS-B
11:39PM 39.5549 -77.9082 157° South 477 549 35,000  Level FlightAware ADS-B
11:40PM 39.4937 -77.8744 157° South 478 550 35,000  Level FlightAware ADS-B
11:40PM 39.4292 -77.8388 157° South 478 550 35,000  Level FlightAware ADS-B
11:41PM 39.3673 -77.8048 157° South 479 551 35,000  Level FlightAware ADS-B
11:41PM 39.3054 -77.7709 157° South 480 552 35,000  Level FlightAware ADS-B
11:42PM 39.2774 -77.7539 155° Southeast 477 549 35,000  Level FlightAware ADS-B
11:42PM 39.2455 -77.7296 149° Southeast 473 544 35,000  Level FlightAware ADS-B
11:43PM 39.1899 -77.6806 146° Southeast 471 542 35,000  Level FlightAware ADS-B
11:43PM 39.1347 -77.6323 146° Southeast 471 542 35,000  Level FlightAware ADS-B
11:44PM 39.0801 -77.5845 146° Southeast 471 542 35,000  Level FlightAware ADS-B
11:44PM 39.0251 -77.5366 146° Southeast 471 542 35,000  Level FlightAware ADS-B
11:45PM 38.9695 -77.4881 146° Southeast 470 541 35,000  Level FlightAware ADS-B
11:45PM 38.9153 -77.4406 146° Southeast 471 542 35,000  Level FlightAware ADS-B
11:46PM 38.8597 -77.3922 146° Southeast 473 544 35,000  Level FlightAware ADS-B
11:46PM 38.8033 -77.3433 146° Southeast 473 544 35,000  Level FlightAware ADS-B
11:47PM 38.7484 -77.2967 146° Southeast 472 543 35,000  Level FlightAware ADS-B
11:47PM 38.6938 -77.2499 146° Southeast 471 542 35,000  Level FlightAware ADS-B
11:48PM 38.6382 -77.2020 146° Southeast 471 542 35,000  Level FlightAware ADS-B
11:48PM 38.5841 -77.1550 146° Southeast 472 543 35,000  Level FlightAware ADS-B
11:49PM 38.5296 -77.1076 146° Southeast 474 545 35,000  Level FlightAware ADS-B
11:49PM 38.4748 -77.0605 146° Southeast 475 547 35,000  Level FlightAware ADS-B
11:50PM 38.4166 -77.0106 146° Southeast 475 547 35,000  Level FlightAware ADS-B
11:50PM 38.3619 -76.9636 146° Southeast 475 547 35,000  Level FlightAware ADS-B
11:51PM 38.3071 -76.9168 146° Southeast 475 547 35,000  Level FlightAware ADS-B
11:51PM 38.2517 -76.8699 146° Southeast 476 548 35,000  Level FlightAware ADS-B
11:52PM 38.1968 -76.8228 146° Southeast 478 550 35,000  Level FlightAware ADS-B
11:52PM 38.1315 -76.7671 146° Southeast 480 552 35,000  Level FlightAware ADS-B
11:53PM 38.0760 -76.7201 146° Southeast 482 555 35,000  Level FlightAware ADS-B
11:53PM 38.0188 -76.6719 146° Southeast 483 556 35,000  Level FlightAware ADS-B
11:54PM 37.9610 -76.6233 146° Southeast 483 556 35,000  Level FlightAware ADS-B
11:54PM 37.9056 -76.5769 147° Southeast 481 554 35,000  Level FlightAware ADS-B
11:55PM 37.8490 -76.5294 146° Southeast 480 552 35,000  Level FlightAware ADS-B
11:55PM 37.7921 -76.4817 146° Southeast 478 550 35,000  Level FlightAware ADS-B
11:56PM 37.7357 -76.4345 146° Southeast 478 550 35,000  Level FlightAware ADS-B
11:56PM 37.6687 -76.3783 146° Southeast 478 550 35,000 120 Level FlightAware ADS-B
11:57PM 37.6125 -76.3313 146° Southeast 480 552 35,200 600 Climbing FlightAware ADS-B
11:57PM 37.5569 -76.2849 147° Southeast 478 550 35,600 660 Climbing FlightAware ADS-B
11:58PM 37.5017 -76.2392 147° Southeast 478 550 35,900 600 Climbing FlightAware ADS-B
11:58PM 37.4459 -76.1928 147° Southeast 479 551 36,200 600 Climbing FlightAware ADS-B
11:59PM 37.3902 -76.1468 147° Southeast 481 554 36,500 240 Climbing FlightAware ADS-B
11:59PM 37.3325 -76.0992 147° Southeast 488 562 36,500 60 Level FlightAware ADS-B
12:00AM 37.2751 -76.0518 147° Southeast 494 568 36,600 180 Climbing FlightAware ADS-B
12:00AM 37.2160 -76.0031 147° Southeast 498 573 36,700 360 Climbing FlightAware ADS-B
12:01AM 37.1579 -75.9557 147° Southeast 497 572 37,000 240 Climbing FlightAware ADS-B
12:01AM 37.0996 -75.9079 147° Southeast 493 567 37,000  Level FlightAware ADS-B
12:02AM 37.0421 -75.8611 147° Southeast 490 564 37,000  Level FlightAware ADS-B
12:02AM 36.9836 -75.8130 147° Southeast 490 564 37,000  Level FlightAware ADS-B
12:03AM 36.9258 -75.7657 147° Southeast 488 562 37,000  Level FlightAware ADS-B
12:04AM 36.8375 -75.6940 147° Southeast 488 562 37,000  Level FlightAware ADS-B
12:04AM 36.7794 -75.6468 147° Southeast 487 560 37,000  Level FlightAware ADS-B
12:05AM 36.7220 -75.5980 146° Southeast 479 551 37,000  Level FlightAware
12:06AM 36.6590 -75.5460 146° Southeast 479 551 37,000  Level FlightAware
12:06AM 36.5970 -75.4930 146° Southeast 479 551 37,000  Level FlightAware
12:07AM 36.5340 -75.4410 146° Southeast 479 551 37,000  Level FlightAware
12:08AM 36.4720 -75.3890 146° Southeast 479 551 37,000  Level FlightAware
12:08AM 36.4090 -75.3360 146° Southeast 479 551 37,000  Level FlightAware
12:09AM 36.3310 -75.2710 146° Southeast 479 551 37,000  Level FlightAware
12:10AM 36.2690 -75.2190 146° Southeast 479 551 37,000  Level FlightAware
12:10AM 36.2060 -75.1660 146° Southeast 479 551 37,000  Level FlightAware
12:11AM 36.1440 -75.1140 146° Southeast 479 551 37,000  Level FlightAware
12:12AM 36.0810 -75.0620 146° Southeast 479 551 37,000  Level FlightAware
12:13AM 36.0030 -74.9970 146° Southeast 479 551 37,000  Level FlightAware
12:13AM 35.9410 -74.9450 146° Southeast 479 551 37,000  Level FlightAware
12:14AM 35.8780 -74.8930 146° Southeast 479 551 37,000  Level FlightAware
12:15AM 35.6414 -74.7394 146° Southeast 483 556 37,000 -120 Level New York Center
12:16AM 35.5297 -74.6469 146° Southeast 483 556 36,900 -60 Descending New York Center
12:17AM 35.4181 -74.5572 147° Southeast 483 556 36,900  Level New York Center
12:18AM 35.3081 -74.4706 147° Southeast 483 556 37,000  Climbing New York Center
12:19AM 35.1961 -74.3839 148° Southeast 478 550 36,900  Descending New York Center
12:20AM 35.0842 -74.2975 148° Southeast 478 550 37,000  Climbing New York Center
12:21AM 34.9697 -74.2114 148° Southeast 478 550 37,000 -60 Level New York Center
12:22AM 34.8578 -74.1231 147° Southeast 483 556 36,900  Descending New York Center
12:23AM 34.7453 -74.0372 148° Southeast 478 550 37,000  Climbing New York Center
12:24AM 34.6331 -73.9544 149° Southeast 478 550 36,900  Descending New York Center
12:25AM 34.5225 -73.8719 148° Southeast 478 550 37,000  Climbing New York Center
12:27AM 34.3080 -73.7364 165° South  Level FlightAware Approximate
12:34AM 33.4587 -73.4581 164° South  Level FlightAware Approximate
12:35AM 33.3375 -73.4178 164° South  Level FlightAware Approximate
12:36AM 33.2163 -73.3778 165° South  Level FlightAware Approximate
12:37AM 33.0949 -73.3387 165° South  Level FlightAware Approximate
12:38AM 32.9735 -73.2996 165° South  Level FlightAware Approximate
12:39AM 32.8521 -73.2607 165° South  Level FlightAware Approximate
12:40AM 32.7304 -73.2229 166° South  Level FlightAware Approximate
12:41AM 32.6082 -73.1879 166° South  Level FlightAware Approximate
12:42AM 32.4859 -73.1530 166° South  Level FlightAware Approximate
12:43AM 32.3637 -73.1181 166° South  Level FlightAware Approximate
12:44AM 32.2417 -73.0819 165° South  Level FlightAware Approximate
12:45AM 32.1201 -73.0442 165° South  Level FlightAware Approximate
12:46AM 31.9984 -73.0066 165° South  Level FlightAware Approximate
12:47AM 31.8768 -72.9691 165° South  Level FlightAware Approximate
12:48AM 31.7551 -72.9317 165° South  Level FlightAware Approximate
12:49AM 31.6335 -72.8944 165° South  Level FlightAware Approximate
12:50AM 31.5118 -72.8572 165° South  Level FlightAware Approximate
12:51AM 31.3901 -72.8201 165° South  Level FlightAware Approximate
12:52AM 31.2684 -72.7831 165° South  Level FlightAware Approximate
12:53AM 31.1467 -72.7462 165° South  Level FlightAware Approximate
12:54AM 31.0249 -72.7094 165° South  Level FlightAware Approximate
12:55AM 30.9032 -72.6727 165° South  Level FlightAware Approximate
12:56AM 30.7814 -72.6360 166° South  Level FlightAware Approximate
12:57AM 30.6597 -72.5995 166° South  Level FlightAware Approximate
12:58AM 30.5380 -72.5627 164° South  Level FlightAware Approximate
12:59AM 30.4172 -72.5223 164° South  Level FlightAware Approximate
01:00AM 30.2963 -72.4820 164° South  Level FlightAware Approximate
01:01AM 30.1755 -72.4418 164° South  Level FlightAware Approximate
01:01AM 30.1667 -72.4500 166° South 476 548 37,000  Level New York Oceanic (ODAPS)
01:02AM 30.0530 -72.4090 168° South  Level FlightAware Approximate
01:03AM 29.9301 -72.3783 168° South  Level FlightAware Approximate
01:04AM 29.8078 -72.3447 166° South  Level FlightAware Approximate
01:05AM 29.6859 -72.3092 166° South  Level FlightAware Approximate
01:06AM 29.5640 -72.2738 166° South  Level FlightAware Approximate
01:07AM 29.4408 -72.2382 166° South  Level FlightAware Approximate
01:08AM 29.1346 -72.1522 166° South 476 548 37,000  Level FlightAware Transoceanic
01:09AM 29.0055 -72.1154 166° South 476 548 37,000  Level FlightAware Transoceanic
01:10AM 28.8764 -72.0787 166° South 476 548 37,000  Level FlightAware Transoceanic
01:11AM 28.7473 -72.0420 166° South 476 548 37,000  Level FlightAware Transoceanic
01:12AM 28.6182 -72.0055 166° South 476 548 37,000  Level FlightAware Transoceanic
01:13AM 28.4891 -71.9691 166° South 476 548 37,000  Level FlightAware Transoceanic
01:14AM 28.3600 -71.9327 166° South 476 548 37,000  Level FlightAware Transoceanic
01:15AM 28.2309 -71.8965 166° South 476 548 37,000  Level FlightAware Transoceanic
01:16AM 28.1018 -71.8603 166° South 476 548 37,000  Level FlightAware Transoceanic
01:17AM 27.9726 -71.8242 166° South 476 548 37,000  Level FlightAware Transoceanic
01:18AM 27.8435 -71.7882 166° South 476 548 37,000  Level FlightAware Transoceanic
01:19AM 27.7143 -71.7523 166° South 476 548 37,000  Level FlightAware Transoceanic
01:20AM 27.5852 -71.7164 166° South 476 548 37,000  Level FlightAware Transoceanic
01:21AM 27.4560 -71.6807 166° South 476 548 37,000  Level FlightAware Transoceanic
01:22AM 27.3268 -71.6450 166° South 476 548 37,000  Level FlightAware Transoceanic
01:23AM 27.1976 -71.6095 166° South 476 548 37,000  Level FlightAware Transoceanic
01:24AM 27.0684 -71.5740 166° South 476 548 37,000  Level FlightAware Transoceanic
01:25AM 26.9392 -71.5385 166° South 476 548 37,000  Level FlightAware Transoceanic
01:26AM 26.8100 -71.5032 166° South 476 548 37,000  Level FlightAware Transoceanic
01:27AM 26.6807 -71.4679 166° South 476 548 37,000  Level FlightAware Transoceanic
01:28AM 26.5515 -71.4328 166° South 476 548 37,000  Level FlightAware Transoceanic
01:29AM 26.4223 -71.3977 166° South 476 548 37,000  Level FlightAware Transoceanic
01:30AM 26.2930 -71.3626 166° South 476 548 37,000  Level FlightAware Transoceanic
01:31AM 26.1637 -71.3277 166° South 476 548 37,000  Level FlightAware Transoceanic
01:32AM 26.0345 -71.2928 166° South 476 548 37,000  Level FlightAware Transoceanic
01:33AM 25.9052 -71.2581 166° South 476 548 37,000  Level FlightAware Transoceanic
01:34AM 25.7759 -71.2234 166° South 476 548 37,000  Level FlightAware Transoceanic
01:34AM 25.5297 -71.1469 166° South 452 520 37,000  Level Miami Center
01:35AM 25.6466 -71.1887 166° South 476 548 37,000  Level FlightAware Transoceanic
01:35AM 25.3969 -71.1142 167° South 464 534 37,000  Level Miami Center
01:36AM 25.5173 -71.1542 166° South 476 548 37,000  Level FlightAware Transoceanic
01:36AM 25.2661 -71.0767 165° South 481 554 37,000  Level Miami Center
01:37AM 25.3880 -71.1197 166° South 476 548 37,000  Level FlightAware Transoceanic
01:37AM 25.1353 -71.0394 166° South 481 554 37,000  Level Miami Center
01:38AM 25.2587 -71.0853 166° South 476 548 37,000  Level FlightAware Transoceanic
01:38AM 25.0086 -71.0086 168° South 481 554 37,000  Level Miami Center
01:39AM 25.1293 -71.0509 166° South 476 548 37,000  Level FlightAware Transoceanic
01:39AM 24.8744 -70.9900 173° South 476 548 37,000  Level Miami Center
01:40AM 24.7531 -70.9342 157° South 476 548 37,000  Level Miami Center
01:41AM 24.6389 -70.8458 145° Southeast 481 554 37,000  Level Miami Center
01:42AM 24.5244 -70.7511 143° Southeast 498 573 37,000  Level Miami Center
01:43AM 24.4106 -70.6700 147° Southeast 503 579 37,000  Level Miami Center
01:44AM 24.2939 -70.5803 145° Southeast 503 579 37,000  Level Miami Center
01:45AM 24.1753 -70.4906 145° Southeast 516 594 37,000  Level Miami Center
01:46AM 24.0614 -70.4125 148° Southeast 516 594 37,000  Level Miami Center
01:47AM 23.9472 -70.3275 146° Southeast 499 574 37,000  Level Miami Center
01:48AM 23.8325 -70.2381 144° Southeast 499 574 37,000  Level Miami Center
01:49AM 23.7164 -70.1558 147° Southeast 505 581 37,000  Level Miami Center
01:50AM 23.5994 -70.0669 145° Southeast 505 581 37,000  Level Miami Center
01:51AM 23.4853 -69.9847 147° Southeast 505 581 37,000  Level Miami Center
01:52AM 23.3664 -69.8964 146° Southeast 505 581 37,000  Level Miami Center
01:53AM 23.2411 -69.8061 146° Southeast 500 575 37,000  Level Miami Center
01:54AM 23.1267 -69.7222 146° Southeast 500 575 37,000  Level Miami Center
01:55AM 23.0081 -69.6386 147° Southeast 500 575 37,000  Level Miami Center
01:56AM 22.8933 -69.5550 146° Southeast 500 575 37,000  Level Miami Center
01:57AM 22.7831 -69.4736 146° Southeast 505 581 37,000  Level Miami Center
01:58AM 22.6619 -69.3861 146° Southeast 500 575 37,000  Level Miami Center
01:59AM 22.5497 -69.3050 146° Southeast 500 575 37,000  Level Miami Center
02:00AM 22.4350 -69.2219 146° Southeast 500 575 37,000  Level Miami Center
02:01AM 22.3225 -69.1389 146° Southeast 500 575 37,000  Level Miami Center
02:02AM 22.2100 -69.0606 147° Southeast 500 575 37,000  Level Miami Center
02:03AM 22.0892 -68.9783 148° Southeast 501 577 37,000  Level Miami Center
02:04AM 21.9764 -68.8956 146° Southeast 496 571 37,000  Level Miami Center
02:05AM 21.8700 -68.8150 145° Southeast 496 571 37,000  Level Miami Center
02:06AM 21.7492 -68.7331 148° Southeast 501 577 37,000  Level Miami Center
02:07AM 21.6386 -68.6528 146° Southeast 494 568 37,000  Level Miami Center
02:08AM 21.5217 -68.5733 148° Southeast 494 568 37,000  Level Miami Center
02:09AM 21.4133 -68.4931 145° Southeast 497 572 37,000  Level Miami Center
02:10AM 21.2942 -68.4094 147° Southeast 497 572 37,000  Level Miami Center
02:11AM 21.1753 -68.3325 149° Southeast 515 593 37,000  Level Miami Center
02:17AM 20.5230 -67.8620 149° Southeast 485 558 37,000  Level FlightAware
02:18AM 20.4320 -67.7980 147° Southeast 484 557 37,000  Level FlightAware
02:18AM 20.3430 -67.7360 147° Southeast 482 555 37,000  Level FlightAware
02:19AM 20.2600 -67.6780 147° Southeast 482 555 37,000  Level FlightAware
02:20AM 20.1850 -67.6260 147° Southeast 482 555 37,000  Level FlightAware
02:20AM 20.1180 -67.5790 147° Southeast 482 555 37,000  Level FlightAware
02:21AM 20.0230 -67.5140 147° Southeast 481 554 37,000  Level FlightAware
02:22AM 19.9480 -67.4620 147° Southeast 481 554 37,000  Level FlightAware
02:22AM 19.8860 -67.4190 147° Southeast 481 554 37,000  Level FlightAware
02:23AM 19.7920 -67.3530 147° Southeast 481 554 37,000  Level FlightAware
02:24AM 19.7170 -67.3020 147° Southeast 480 552 37,000  Level FlightAware
02:25AM 19.6300 -67.2420 147° Southeast 481 554 37,000  Level FlightAware
02:25AM 19.5570 -67.1910 147° Southeast 481 554 37,000  Level FlightAware
02:26AM 19.4750 -67.1350 147° Southeast 480 552 37,000  Level FlightAware
02:27AM 19.3990 -67.0820 147° Southeast 479 551 37,000  Level FlightAware
02:27AM 19.3240 -67.0310 147° Southeast 479 551 37,000  Level FlightAware
02:28AM 19.2420 -66.9740 147° Southeast 479 551 37,000  Level FlightAware
02:29AM 19.1660 -66.9230 148° Southeast 479 551 37,000  Level FlightAware
02:30AM 19.0820 -66.8650 147° Southeast 477 549 37,000  Level FlightAware
02:30AM 19.0070 -66.8130 147° Southeast 475 547 37,000  Level FlightAware
02:31AM 18.9330 -66.7630 147° Southeast 474 545 37,000  Level FlightAware
02:32AM 18.8520 -66.7080 147° Southeast 475 547 37,000  Level FlightAware
02:32AM 18.7770 -66.6570 147° Southeast 474 545 37,000  Level FlightAware
02:33AM 18.6930 -66.6000 147° Southeast 474 545 37,000  Level FlightAware
02:34AM 18.6220 -66.5510 147° Southeast 475 547 37,000  Level FlightAware
02:35AM 18.5360 -66.4930 147° Southeast 476 548 37,000  Level FlightAware
02:35AM 18.4640 -66.4440 147° Southeast 477 549 37,000  Level FlightAware
02:36AM 18.3890 -66.3930 147° Southeast 477 549 37,000  Level FlightAware
02:37AM 18.3150 -66.3430 147° Southeast 477 549 37,000  Level FlightAware
02:37AM 18.2280 -66.2840 147° Southeast 477 549 37,000  Level FlightAware
02:38AM 18.1550 -66.2340 147° Southeast 477 549 37,000  Level FlightAware
02:39AM 18.0730 -66.1790 147° Southeast 478 550 37,000  Level FlightAware
02:39AM 17.9970 -66.1280 147° Southeast 478 550 37,000  Level FlightAware
02:40AM 17.9120 -66.0700 147° Southeast 478 550 37,000  Level FlightAware
02:41AM 17.8370 -66.0200 148° Southeast 479 551 37,000  Level FlightAware
02:41AM 17.7620 -65.9700 148° Southeast 478 550 37,000  Level FlightAware
02:42AM 17.6800 -65.9150 147° Southeast 478 550 37,000  Level FlightAware
02:43AM 17.6070 -65.8660 147° Southeast 478 550 37,000  Level FlightAware
02:44AM 17.5310 -65.8150 147° Southeast 478 550 37,000  Level FlightAware
02:44AM 17.4450 -65.7570 147° Southeast 478 550 37,000  Level FlightAware
02:45AM 17.3710 -65.7070 147° Southeast 477 549 37,000  Level FlightAware
02:46AM 17.2870 -65.6520 148° Southeast 476 548 37,000  Level FlightAware
02:46AM 17.2130 -65.6020 147° Southeast 474 545 37,000  Level FlightAware
02:47AM 17.1490 -65.5590 147° Southeast 474 545 37,000  Level FlightAware
02:48AM 17.0860 -65.5160 147° Southeast 474 545 37,000  Level FlightAware
02:48AM 17.0240 -65.4740 147° Southeast 474 545 37,000  Level FlightAware
02:49AM 16.9460 -65.4210 147° Southeast 474 545 37,000  Level FlightAware
02:50AM 16.8830 -65.3780 147° Southeast 474 545 37,000  Level FlightAware
02:51AM 16.8210 -65.3360 147° Southeast 474 545 37,000  Level FlightAware
02:51AM 16.7580 -65.2930 147° Southeast 474 545 37,000  Level FlightAware
02:52AM 16.6960 -65.2510 147° Southeast 474 545 37,000  Level FlightAware
02:53AM 16.6170 -65.1980 147° Southeast 474 545 37,000  Level FlightAware
02:53AM 16.5550 -65.1560 147° Southeast 474 545 37,000  Level FlightAware
02:54AM 16.4920 -65.1130 147° Southeast 474 545 37,000  Level FlightAware
02:55AM 16.4300 -65.0710 147° Southeast 474 545 37,000  Level FlightAware
02:55AM 16.3670 -65.0290 147° Southeast 474 545 37,000  Level FlightAware
02:56AM 16.2890 -64.9760 147° Southeast 474 545 37,000 960 Level FlightAware
02:57AM 16.0000 -64.8000 147° Southeast 460 529 39,000 900 Climbing San Juan Center
02:58AM 15.8833 -64.7333 151° Southeast 460 529 39,000  Level San Juan Center
02:59AM 15.8000 -64.6667 142° Southeast 450 518 39,000  Level San Juan Center
03:00AM 15.6667 -64.5667 144° Southeast 470 541 39,000  Level San Juan Center
03:01AM 15.5500 -64.5167 158° South 440 506 39,000  Level San Juan Center
03:02AM 15.4667 -64.4333 136° Southeast 460 529 39,000  Level San Juan Center
03:03AM 15.3500 -64.3500 145° Southeast 460 529 39,000  Level San Juan Center
03:04AM 15.2500 -64.2833 147° Southeast 450 518 39,000  Level San Juan Center
03:05AM 15.1333 -64.2167 151° Southeast 440 506 39,000  Level San Juan Center
03:06AM 15.0333 -64.1500 147° Southeast 430 495 39,000  Level San Juan Center
03:08AM 14.9185 -64.0836 149° Southeast  Level FlightAware Approximate
03:15AM 14.1581 -63.6216 149° Southeast  Level FlightAware Approximate
03:16AM 14.0485 -63.5574 150° Southeast  Level FlightAware Approximate
03:17AM 13.9388 -63.4934 150° Southeast  Level FlightAware Approximate
03:18AM 13.8291 -63.4294 150° Southeast  Level FlightAware Approximate
03:19AM 13.7194 -63.3656 151° Southeast  Level FlightAware Approximate
03:20AM 13.6097 -63.3017 151° Southeast  Level FlightAware Approximate
03:21AM 13.5000 -63.2380 151° Southeast  Level FlightAware Approximate
03:22AM 13.3902 -63.1743 151° Southeast  Level FlightAware Approximate
03:23AM 13.2805 -63.1106 151° Southeast  Level FlightAware Approximate
03:23AM 13.3600 -63.0490 151° Southeast 442 509 39,000  Level FlightAware
03:23AM 13.3070 -63.0120 146° Southeast 441 507 39,000  Level FlightAware
03:24AM 13.2500 -62.9730 146° Southeast 441 507 39,000  Level FlightAware
03:25AM 13.1780 -62.9230 146° Southeast 441 507 39,000  Level FlightAware
03:26AM 13.1200 -62.8830 146° Southeast 441 507 39,000  Level FlightAware
03:26AM 13.0630 -62.8430 146° Southeast 441 507 39,000  Level FlightAware
03:27AM 13.0050 -62.8030 146° Southeast 441 507 39,000  Level FlightAware
03:28AM 12.9480 -62.7640 146° Southeast 441 507 39,000  Level FlightAware
03:28AM 12.7780 -62.6640 150° Southeast 441 507 39,000  Level FlightAware
03:29AM 12.6890 -62.6050 147° Southeast 441 507 39,000  Level FlightAware
03:30AM 12.6310 -62.5660 147° Southeast 441 507 39,000  Level FlightAware
03:31AM 12.5340 -62.5030 148° Southeast 39,000  Level FlightAware
03:31AM 12.4850 -62.4710 147° Southeast 445 512 39,000  Level FlightAware
03:32AM 12.4270 -62.4320 147° Southeast 445 512 39,000  Level FlightAware
03:33AM 12.3530 -62.3830 147° Southeast 445 512 39,000  Level FlightAware
03:33AM 12.2950 -62.3440 147° Southeast 445 512 39,000  Level FlightAware
03:34AM 12.2360 -62.3050 147° Southeast 445 512 39,000  Level FlightAware
03:35AM 12.0850 -62.2080 148° Southeast 441 507 39,000  Level FlightAware
03:36AM 12.0260 -62.1690 147° Southeast 441 507 39,000  Level FlightAware
03:36AM 11.9680 -62.1300 147° Southeast 441 507 39,000  Level FlightAware
03:37AM 11.9100 -62.0920 147° Southeast 441 507 39,000  Level FlightAware
03:38AM 11.8370 -62.0440 147° Southeast 441 507 39,000  Level FlightAware
03:39AM 11.7790 -62.0050 147° Southeast 441 507 39,000  Level FlightAware
03:39AM 11.7210 -61.9660 147° Southeast 441 507 39,000  Level FlightAware
03:40AM 11.6630 -61.9280 147° Southeast 441 507 39,000  Level FlightAware
03:41AM 11.5900 -61.8800 147° Southeast 441 507 39,000  Level FlightAware
03:41AM 11.5320 -61.8410 147° Southeast 441 507 39,000  Level FlightAware
03:42AM 11.4740 -61.8020 147° Southeast 441 507 39,000  Level FlightAware
03:43AM 11.4160 -61.7640 147° Southeast 441 507 39,000  Level FlightAware
03:43AM 11.3570 -61.7250 147° Southeast 441 507 39,000  Level FlightAware
03:44AM 11.2850 -61.6770 147° Southeast 441 507 39,000  Level FlightAware
03:47AM 11.0576 -61.5116 144° Southeast  Level Estimated
03:48AM 10.9550 -61.4371 145° Southeast  Level Estimated
03:49AM 10.8523 -61.3626 145° Southeast  Level Estimated
03:50AM 10.7497 -61.2882 145° Southeast  Level Estimated
03:51AM 10.6470 -61.2138 145° Southeast  Level Estimated
03:52AM 10.5443 -61.1395 145° Southeast  Level Estimated
03:53AM 10.4416 -61.0652 145° Southeast  Level Estimated
03:54AM 10.3388 -60.9910 145° Southeast  Level Estimated
03:55AM 10.2361 -60.9168 145° Southeast  Level Estimated
03:56AM 10.1333 -60.8427 145° Southeast  Level Estimated
03:57AM 10.0306 -60.7686 145° Southeast  Level Estimated
03:58AM 9.9277 -60.6946 145° Southeast  Level Estimated
03:59AM 9.8249 -60.6206 145° Southeast  Level Estimated
04:00AM 9.7221 -60.5466 145° Southeast  Level Estimated
04:01AM 9.6193 -60.4727 145° Southeast  Level Estimated
04:02AM 9.5164 -60.3989 145° Southeast  Level Estimated
04:03AM 9.4135 -60.3251 145° Southeast  Level Estimated
04:04AM 9.3106 -60.2513 145° Southeast  Level Estimated
04:05AM 9.2077 -60.1776 145° Southeast  Level Estimated
04:06AM 9.1048 -60.1039 145° Southeast  Level Estimated
04:07AM 9.0019 -60.0303 145° Southeast  Level Estimated
04:08AM 8.8989 -59.9567 145° Southeast  Level Estimated
04:09AM 8.7960 -59.8831 145° Southeast  Level Estimated
04:10AM 8.6930 -59.8096 145° Southeast  Level Estimated
04:11AM 8.5900 -59.7362 145° Southeast  Level Estimated
04:12AM 8.4870 -59.6627 145° Southeast  Level Estimated
04:13AM 8.3840 -59.5894 145° Southeast  Level Estimated
04:14AM 8.2809 -59.5160 145° Southeast  Level Estimated
04:15AM 8.1779 -59.4427 145° Southeast  Level Estimated
04:16AM 8.0748 -59.3694 145° Southeast  Level Estimated
04:17AM 7.9717 -59.2962 145° Southeast  Level Estimated
04:18AM 7.8687 -59.2230 145° Southeast  Level Estimated
04:19AM 7.7656 -59.1498 145° Southeast  Level Estimated
04:20AM 7.6624 -59.0767 145° Southeast  Level Estimated
04:21AM 7.5593 -59.0036 145° Southeast  Level Estimated
04:22AM 7.4562 -58.9305 145° Southeast  Level Estimated
04:23AM 7.3530 -58.8575 145° Southeast  Level Estimated
04:24AM 7.2499 -58.7845 145° Southeast  Level Estimated
04:25AM 7.1467 -58.7116 145° Southeast  Level Estimated
04:26AM 7.0435 -58.6386 145° Southeast  Level Estimated
04:27AM 6.9403 -58.5657 145° Southeast  Level Estimated
04:28AM 6.8371 -58.4929 145° Southeast  Level Estimated
04:29AM 6.7339 -58.4201 145° Southeast  Level Estimated
04:30AM 6.6307 -58.3473 145° Southeast  Level Estimated
04:31AM 6.5274 -58.2745 145° Southeast  Level Estimated
04:32AM 6.4985 -58.2541 145° Southeast  Level Estimated
04:33AM 6.4985 -58.2541 18° North  Level Estimated
04:34AM 6.4985 -58.2541 18° North  Level Estimated
04:35AM 6.4985 -58.2541 18° North  Level Estimated
04:36AM 6.4985 -58.2541 18° North  Level Estimated
04:37AM 6.4985 -58.2541 18° North  Level Estimated
04:38AM 6.4985 -58.2541 18° North  Level Estimated
04:39AM 6.4985 -58.2541 18° North  Level Estimated
04:40AM 6.4985 -58.2541 18° North  Level Estimated
04:41AM 6.4985 -58.2541 18° North  Level Estimated
04:42AM 6.4985 -58.2541 18° North  Level Estimated
04:43AM 6.4985 -58.2541 18° North  Level Estimated
04:44AM 6.4985 -58.2541 18° North  Level Estimated
04:45AM 6.4985 -58.2541 18° North  Level Estimated
04:46AM 6.4985 -58.2541 18° North  Level Estimated
04:47AM 6.4985 -58.2541 18° North  Level Estimated
04:48AM 6.4985 -58.2541 18° North  Level Estimated
04:49AM 6.4985 -58.2541 18° North  Level Estimated
04:50AM 6.4985 -58.2541 18° North  Level Estimated
04:51AM 6.4985 -58.2541 18° North  Level Estimated
04:52AM 6.4985 -58.2541 18° North  Level Estimated
04:53AM 6.4985 -58.2541 18° North  Level Estimated
04:54AM 6.4985 -58.2541 18° North  Level Estimated
04:55AM 6.4985 -58.2541 18° North  Level Estimated
04:56AM 6.4985 -58.2541 18° North  Level Estimated
04:57AM 6.4985 -58.2541 18° North  Level Estimated
04:58AM 6.4985 -58.2541 18° North  Level Estimated
04:59AM 6.4985 -58.2541 18° North  Level Estimated
05:00AM 6.4985 -58.2541 18° North  Level Estimated
05:01AM 6.4985 -58.2541 18° North  Level Estimated
05:02AM 6.4985 -58.2541 18° North  Level Estimated
05:03AM 6.4985 -58.2541 18° North  Level Estimated
05:04AM 6.4985 -58.2541 18° North  Level Estimated
05:05AM 6.4985 -58.2541 18° North  Level Estimated
05:06AM 6.4985 -58.2541 18° North  Level Estimated
05:07AM 6.4985 -58.2541 18° North  Level Estimated
05:08AM 6.4985 -58.2541 18° North  Level Estimated
05:09AM 6.4985 -58.2541 18° North  Level Estimated
05:10AM 6.4985 -58.2541 18° North  Level Estimated
05:11AM 6.4985 -58.2541 18° North  Level Estimated
05:12AM 6.4985 -58.2541 18° North  Level Estimated
05:13AM 6.4985 -58.2541 18° North  Level Estimated
05:14AM 6.4985 -58.2541 18° North  Level Estimated
05:15AM 6.4985 -58.2541 18° North  Level Estimated
05:16AM 6.4985 -58.2541 18° North  Level Estimated
05:17AM 6.4985 -58.2541 18° North  Level Estimated
05:18AM 6.4985 -58.2541 18° North  Level Estimated
05:19AM 6.4985 -58.2541 18° North  Level Estimated
05:20AM 6.4985 -58.2541 18° North  Level Estimated
05:21AM 6.4985 -58.2541 18° North  Level Estimated
05:22AM 6.4985 -58.2541 18° North  Level Estimated
05:23AM 6.4985 -58.2541 18° North  Level Estimated
05:24AM 6.4985 -58.2541 18° North  Level Estimated
05:25AM 6.4985 -58.2541 18° North  Level Estimated
05:26AM 6.4985 -58.2541 18° North  Level Estimated
05:27AM 6.4985 -58.2541 18° North  Level Estimated
05:28AM 6.4985 -58.2541 18° North  Level Estimated
05:29AM 6.4985 -58.2541 18° North  Level Estimated
05:30AM 6.4985 -58.2541 18° North  Level Estimated
05:31AM 6.4985 -58.2541 18° North  Level Estimated
05:32AM 6.4985 -58.2541 18° North  Level Estimated
05:33AM 6.4985 -58.2541 18° North  Level Estimated
05:34AM 6.4985 -58.2541 18° North  Level Estimated
05:35AM 6.4985 -58.2541 18° North  Level Estimated
05:36AM 6.4985 -58.2541 18° North  Level Estimated
05:37AM 6.4985 -58.2541 18° North  Level Estimated
05:38AM 6.4985 -58.2541 18° North  Level Estimated
05:39AM 6.4985 -58.2541 18° North  Level Estimated
05:40AM 6.4985 -58.2541 18° North  Level Estimated
05:41AM 6.4985 -58.2541 18° North  Level Estimated
05:42AM 6.4985 -58.2541 18° North  Level Estimated
05:43AM 6.4985 -58.2541 18° North  Level Estimated
05:44AM 6.4985 -58.2541 18° North  Level Estimated
05:45AM 6.4985 -58.2541 18° North  Level Estimated
05:46AM 6.4985 -58.2541 18° North  Level Estimated
05:47AM 6.4985 -58.2541 18° North  Level Estimated